Sable Island, Canada
Current Conditions -  °F | °C
As of 6:00 AM on Wednesday 22 Oct 2014 (Local Time) from CESA Reporting Station
Scattered Clouds Scattered Clouds  
Wind Chill: 56°   Ceiling: Unl
Heat Index: 56°   Visibility: 9mi
Dew Point: 46°   Wind: 17mph
Humidity: 68%   Direction: 80°E
Pressure: 30.27"   Gusts: NA
Location:  43.95°N, 59.85°W
Report Text: CESA 220900Z AUTO 08015KT 9SM SCT062 14/08 A3027 RMK SLP252 PK WND 08020/// T01350076 WSI/SWOB
Loading
Personal Weather Stations






























Interactive Weather Map
Tropical Storm Tracking
New forecast layout! Learn more

10-Day Weather Forecast

Advertisements
Track Severe Weather on mobile